Ubc Sacramento — P3CH9 — position and weather

sailwx.info

Track history (hours):
 
Tides and Currents Weather Stations Pressure Air Temp Water Temp Dewpoint Dewpoint Depression Visibility Wind Speed Wind Dir Waves Ship Positions

Ubc Sacramento

Last reported at 2017-Sep-17 04:14 UTC. Time now 2017-Sep-22 20:43 UTC.
Position N 29°15' W 094°38'.

Length 172 m; draft 6.1 m.

Type: Cargo ship. MMSI: 209393000.

Date/timePositionNaut miles runAvg speedWind from/ knotsBaromVisibWave heightAir tempDewpointWater temp
2017-Sep-17 04:14N 29°15' W 094°38'0 0.0
2017-Sep-17 03:11N 29°15' W 094°38'0 0.0
2017-Sep-17 02:56N 29°15' W 094°38'0 0.0
2017-Sep-17 02:23N 29°15' W 094°38'0 0.0
2017-Sep-17 01:59N 29°15' W 094°38'15 3.5
2017-Sep-16 21:39N 29°26' W 094°50'212.6
2017-Sep-16 21:30N 29°28' W 094°51'613.2
2017-Sep-16 21:00N 29°33' W 094°55'612.7
2017-Sep-16 20:30N 29°39' W 094°58'3 4.7
2017-Sep-16 19:58N 29°41' W 094°59'0 0.0
2017-Sep-16 19:28N 29°41' W 094°59'0 0.0
2017-Sep-16 18:58N 29°41' W 094°59'0 0.0
2017-Sep-16 18:28N 29°41' W 094°59'0 0.0
2017-Sep-16 17:58N 29°41' W 094°59'0 0.0
2017-Sep-16 17:28N 29°41' W 094°59'0 0.0
2017-Sep-16 16:58N 29°41' W 094°59'0 0.0
2017-Sep-16 16:28N 29°41' W 094°59'0 0.0
2017-Sep-16 15:58N 29°41' W 094°59'0 0.0
2017-Sep-16 15:28N 29°41' W 094°59'0 0.0
2017-Sep-16 14:52N 29°41' W 094°59'0 0.0
2017-Sep-16 14:28N 29°41' W 094°59'0 0.0
2017-Sep-16 13:58N 29°41' W 094°59'0 0.0
2017-Sep-16 13:28N 29°41' W 094°59'0 0.0
2017-Sep-16 12:58N 29°41' W 094°59'0 0.0
2017-Sep-16 12:28N 29°41' W 094°59'0 0.0
2017-Sep-16 11:58N 29°41' W 094°59'0 0.0
2017-Sep-16 11:28N 29°41' W 094°59'0 0.0
2017-Sep-16 10:58N 29°41' W 094°59'0 0.0
2017-Sep-16 10:28N 29°41' W 094°59'0 0.0
2017-Sep-16 09:58N 29°41' W 094°59'0 0.0
2017-Sep-16 09:28N 29°41' W 094°59'0 0.0
2017-Sep-16 08:55N 29°41' W 094°59'0 0.0
2017-Sep-16 08:28N 29°41' W 094°59'0 0.0
2017-Sep-16 07:58N 29°41' W 094°59'0 0.0
2017-Sep-16 07:28N 29°41' W 094°59'0 0.0
2017-Sep-16 06:58N 29°41' W 094°59'0 0.0
2017-Sep-16 06:25N 29°41' W 094°59'0 0.0
2017-Sep-16 05:58N 29°41' W 094°59'0 0.0
2017-Sep-16 05:28N 29°41' W 094°59'0 0.0
2017-Sep-16 04:58N 29°41' W 094°59'0 0.0
2017-Sep-16 04:28N 29°41' W 094°59'0 0.0
2017-Sep-16 03:55N 29°41' W 094°59'0 0.0
2017-Sep-16 03:28N 29°41' W 094°59'0 0.0
2017-Sep-16 02:58N 29°41' W 094°59'0 0.0
2017-Sep-16 02:28N 29°41' W 094°59'0 0.0
2017-Sep-16 01:58N 29°41' W 094°59'0 0.0
2017-Sep-16 01:28N 29°41' W 094°59'0 0.0
2017-Sep-16 00:58N 29°41' W 094°59'0 0.0
2017-Sep-16 00:28N 29°41' W 094°59'0 0.0
2017-Sep-15 23:58N 29°41' W 094°59'0 0.0
2017-Sep-15 23:25N 29°41' W 094°59'0 0.0
2017-Sep-15 23:00N 29°41' W 094°59'0 0.0
2017-Sep-15 22:30N 29°41' W 094°59'0 0.0
2017-Sep-15 22:00N 29°41' W 094°59'0 0.0
2017-Sep-15 21:30N 29°41' W 094°59'0 0.0
2017-Sep-15 21:00N 29°41' W 094°59'0 0.0
2017-Sep-15 20:30N 29°41' W 094°59'0 0.0
2017-Sep-15 20:00N 29°41' W 094°59'0 0.7
2017-Sep-15 19:30N 29°41' W 094°59'510.7
2017-Sep-15 19:00N 29°36' W 094°57'713.1
2017-Sep-15 18:30N 29°30' W 094°53'612.8
2017-Sep-15 18:00N 29°25' W 094°49'59512.4
2017-Sep-13 17:57N 19°32' W 095°55'613.5
2017-Sep-13 17:30N 19°26' W 095°56'713.3
2017-Sep-13 17:01N 19°20' W 095°57'612.2
2017-Sep-13 16:30N 19°14' W 095°59'510.6
2017-Sep-13 16:00N 19°12' W 096°04'4 7.5
2017-Sep-13 15:30N 19°13' W 096°08'0 0.1
2017-Sep-13 15:00N 19°13' W 096°08'0 0.0
2017-Sep-13 14:30N 19°13' W 096°08'0 0.0
2017-Sep-13 14:00N 19°13' W 096°08'0 0.0
2017-Sep-13 13:27N 19°13' W 096°08'0 0.0
2017-Sep-13 13:00N 19°13' W 096°08'0 0.0
2017-Sep-13 12:27N 19°13' W 096°08'0 0.0
2017-Sep-13 12:00N 19°13' W 096°08'0 0.0
2017-Sep-13 11:27N 19°13' W 096°08'0 0.0
2017-Sep-13 11:00N 19°13' W 096°08'0 0.0
2017-Sep-13 10:30N 19°13' W 096°08'0 0.0
2017-Sep-13 09:57N 19°13' W 096°08'0 0.0
2017-Sep-13 09:30N 19°13' W 096°08'0 0.0
2017-Sep-13 09:00N 19°13' W 096°08'0 0.0
2017-Sep-13 08:27N 19°13' W 096°08'0 0.0
2017-Sep-13 07:57N 19°13' W 096°08'0 0.0
2017-Sep-13 07:30N 19°13' W 096°08'0 0.0
2017-Sep-13 07:00N 19°13' W 096°08'0 0.0
2017-Sep-13 06:30N 19°13' W 096°08'0 0.0
2017-Sep-13 06:00N 19°13' W 096°08'0 0.0
2017-Sep-13 05:30N 19°13' W 096°08'0 0.0
2017-Sep-13 05:00N 19°13' W 096°08'0 0.0
2017-Sep-13 04:30N 19°13' W 096°08'0 0.0
2017-Sep-13 04:00N 19°13' W 096°08'0 0.0
2017-Sep-13 03:30N 19°13' W 096°08'0 0.0
2017-Sep-13 03:00N 19°13' W 096°08'0 0.0
2017-Sep-13 02:30N 19°13' W 096°08'0 0.0
2017-Sep-13 02:00N 19°13' W 096°08'0 0.0
2017-Sep-13 01:30N 19°13' W 096°08'0 0.0
2017-Sep-13 01:00N 19°13' W 096°08'0 0.0
2017-Sep-13 00:30N 19°13' W 096°08'0 0.0
2017-Sep-13 00:00N 19°13' W 096°08'0 0.0
2017-Sep-12 23:30N 19°13' W 096°08'0 0.0
2017-Sep-12 23:00N 19°13' W 096°08'0 0.0
2017-Sep-12 22:30N 19°13' W 096°08'0 0.0
2017-Sep-12 22:00N 19°13' W 096°08'0 0.0
2017-Sep-12 21:30N 19°13' W 096°08'0 0.0
2017-Sep-12 21:00N 19°13' W 096°08'0 0.0
2017-Sep-12 20:30N 19°13' W 096°08'0 0.0
2017-Sep-12 20:00N 19°13' W 096°08'0 0.0
2017-Sep-12 19:30N 19°13' W 096°08'0 0.0
2017-Sep-12 19:00N 19°13' W 096°08'0 0.0
2017-Sep-12 18:30N 19°13' W 096°08'0 0.0
2017-Sep-12 18:00N 19°13' W 096°08'0 0.0
2017-Sep-12 17:30N 19°13' W 096°08'0 0.0
2017-Sep-12 17:00N 19°13' W 096°08'0 0.0
2017-Sep-12 16:30N 19°13' W 096°08'0 0.0
2017-Sep-12 16:00N 19°13' W 096°08'0 0.0
2017-Sep-12 15:30N 19°13' W 096°08'0 0.0
2017-Sep-12 15:00N 19°13' W 096°08'0 0.0
2017-Sep-12 14:30N 19°13' W 096°08'0 0.0
2017-Sep-12 14:00N 19°13' W 096°08'0 0.0
2017-Sep-12 13:27N 19°13' W 096°08'0 0.0
2017-Sep-12 12:57N 19°13' W 096°08'0 0.0
2017-Sep-12 12:30N 19°13' W 096°08'0 0.0
2017-Sep-12 12:00N 19°13' W 096°08'0 0.0
2017-Sep-12 11:30N 19°13' W 096°08'0 0.0
2017-Sep-12 11:00N 19°13' W 096°08'0 0.0
2017-Sep-12 10:30N 19°13' W 096°08'0 0.0
2017-Sep-12 10:00N 19°13' W 096°08'0 0.0
2017-Sep-12 09:30N 19°13' W 096°08'0 0.0
2017-Sep-12 08:57N 19°13' W 096°08'0 0.0
2017-Sep-12 08:30N 19°13' W 096°08'0 0.0
2017-Sep-12 08:00N 19°13' W 096°08'0 0.0
2017-Sep-12 07:30N 19°13' W 096°08'0 0.0
2017-Sep-12 07:00N 19°13' W 096°08'0 0.0
2017-Sep-12 06:27N 19°13' W 096°08'0 0.0
2017-Sep-12 06:00N 19°13' W 096°08'0 0.0
2017-Sep-12 05:30N 19°13' W 096°08'0 0.0
2017-Sep-12 05:00N 19°13' W 096°08'0 0.0
2017-Sep-12 04:30N 19°13' W 096°08'0 0.0
2017-Sep-12 04:00N 19°13' W 096°08'0 0.0
2017-Sep-12 03:30N 19°13' W 096°08'0 0.0
2017-Sep-12 03:00N 19°13' W 096°08'0 0.0
2017-Sep-12 02:30N 19°13' W 096°08'0 0.0
2017-Sep-12 02:00N 19°13' W 096°08'0 0.0
2017-Sep-12 01:27N 19°13' W 096°08'0 0.0
2017-Sep-12 01:00N 19°13' W 096°08'0 0.0
2017-Sep-12 00:30N 19°13' W 096°08'0 0.0
2017-Sep-12 00:00N 19°13' W 096°08'0 0.0
2017-Sep-11 23:30N 19°13' W 096°08'0 0.0
2017-Sep-11 23:00N 19°13' W 096°08'0 0.0
2017-Sep-11 22:30N 19°13' W 096°08'0 0.0
2017-Sep-11 22:00N 19°13' W 096°08'0 0.0
2017-Sep-11 21:30N 19°13' W 096°08'0 0.0
2017-Sep-11 20:57N 19°13' W 096°08'0 0.0
2017-Sep-11 20:30N 19°13' W 096°08'0 0.0
2017-Sep-11 20:00N 19°13' W 096°08'0 0.0
2017-Sep-11 19:30N 19°13' W 096°08'0 0.0
2017-Sep-11 18:57N 19°13' W 096°08'0 0.0
2017-Sep-11 18:30N 19°13' W 096°08'0 0.0
2017-Sep-11 18:00N 19°13' W 096°08'0 0.0
2017-Sep-11 17:30N 19°13' W 096°08'0 0.0
2017-Sep-11 16:54N 19°13' W 096°08'0 0.0
2017-Sep-11 16:30N 19°13' W 096°08'0 0.0
2017-Sep-11 16:00N 19°13' W 096°08'0 0.0
2017-Sep-11 15:30N 19°13' W 096°08'0 0.0
2017-Sep-11 15:00N 19°13' W 096°08'0 0.0
2017-Sep-11 14:30N 19°13' W 096°08'0 0.0
2017-Sep-11 14:00N 19°13' W 096°08'0 0.0
2017-Sep-11 13:24N 19°13' W 096°08'0 0.0
2017-Sep-11 13:00N 19°13' W 096°08'0 0.0
2017-Sep-11 12:30N 19°13' W 096°08'0 0.0
2017-Sep-11 12:00N 19°13' W 096°08'0 0.0
2017-Sep-11 11:30N 19°13' W 096°08'0 0.0
2017-Sep-11 11:00N 19°13' W 096°08'0 0.0
2017-Sep-11 10:30N 19°13' W 096°08'0 0.0
2017-Sep-11 10:00N 19°13' W 096°08'0 0.0
2017-Sep-11 09:30N 19°13' W 096°08'0 0.0
2017-Sep-11 09:00N 19°13' W 096°08'0 0.0
2017-Sep-11 08:30N 19°13' W 096°08'0 0.0
2017-Sep-11 08:00N 19°13' W 096°08'0 0.0
2017-Sep-11 07:30N 19°13' W 096°08'0 0.0
2017-Sep-11 07:00N 19°13' W 096°08'0 0.0
2017-Sep-11 06:30N 19°13' W 096°08'0 0.0
2017-Sep-11 05:54N 19°13' W 096°08'0 0.0
2017-Sep-11 05:30N 19°13' W 096°08'0 0.0
2017-Sep-11 05:00N 19°13' W 096°08'0 0.0
2017-Sep-11 04:30N 19°13' W 096°08'0 0.0
2017-Sep-11 03:54N 19°13' W 096°08'0 0.0
2017-Sep-11 03:30N 19°13' W 096°08'0 0.0
2017-Sep-11 03:00N 19°13' W 096°08'0 0.0
2017-Sep-11 02:30N 19°13' W 096°08'0 0.0
2017-Sep-11 02:00N 19°13' W 096°08'0 0.0
2017-Sep-11 01:30N 19°13' W 096°08'0 0.0
2017-Sep-11 01:00N 19°13' W 096°08'0 0.0
2017-Sep-11 00:30N 19°13' W 096°08'0 0.0
2017-Sep-11 00:00N 19°13' W 096°08'0 0.0
2017-Sep-10 23:30N 19°13' W 096°08'0 0.0
2017-Sep-10 23:00N 19°13' W 096°08'0 0.0
2017-Sep-10 22:30N 19°13' W 096°08'0 0.0
2017-Sep-10 22:00N 19°13' W 096°08'0 0.0
2017-Sep-10 21:30N 19°13' W 096°08'0 0.0
2017-Sep-10 21:00N 19°13' W 096°08'0 0.0
2017-Sep-10 20:30N 19°13' W 096°08'0 0.0
2017-Sep-10 20:00N 19°13' W 096°08'0 0.0
2017-Sep-10 19:24N 19°13' W 096°08'0 0.0
2017-Sep-10 18:54N 19°13' W 096°08'0 0.0
2017-Sep-10 18:30N 19°13' W 096°08'0 0.0
2017-Sep-10 17:57N 19°13' W 096°08'0 0.0
2017-Sep-10 17:30N 19°13' W 096°08'0 0.0
2017-Sep-10 17:00N 19°13' W 096°08'0 0.0
2017-Sep-10 16:30N 19°13' W 096°08'0 0.0
2017-Sep-10 16:00N 19°13' W 096°08'0 0.0
2017-Sep-10 15:30N 19°13' W 096°08'0 0.0
2017-Sep-10 15:00N 19°13' W 096°08'0 0.0
2017-Sep-10 14:00N 19°13' W 096°08'0 0.0
2017-Sep-10 13:30N 19°13' W 096°08'0 0.0
2017-Sep-10 13:00N 19°13' W 096°08'0 0.0
2017-Sep-10 12:30N 19°13' W 096°08'0 0.0
2017-Sep-10 11:57N 19°13' W 096°08'0 0.0
2017-Sep-10 11:27N 19°13' W 096°08'0 0.0
2017-Sep-10 11:00N 19°13' W 096°08'0 0.0
2017-Sep-10 10:30N 19°13' W 096°08'0 0.0
2017-Sep-10 10:00N 19°13' W 096°08'0 0.0
2017-Sep-10 09:30N 19°13' W 096°08'0 0.0
2017-Sep-10 09:00N 19°13' W 096°08'0 0.0
2017-Sep-10 08:30N 19°13' W 096°08'0 0.0
2017-Sep-10 08:00N 19°13' W 096°08'0 0.0
2017-Sep-10 07:30N 19°13' W 096°08'0 0.0
2017-Sep-10 07:00N 19°13' W 096°08'0 0.0
2017-Sep-10 06:30N 19°13' W 096°08'0 0.0
2017-Sep-10 06:00N 19°13' W 096°08'0 0.0
2017-Sep-10 05:30N 19°13' W 096°08'0 0.0
2017-Sep-10 05:00N 19°13' W 096°08'0 0.0
2017-Sep-10 04:30N 19°13' W 096°08'0 0.0
2017-Sep-10 04:00N 19°13' W 096°08'0 0.0
2017-Sep-10 03:30N 19°13' W 096°08'0 0.0
2017-Sep-10 02:51N 19°13' W 096°08'0 0.0
2017-Sep-10 02:30N 19°13' W 096°08'0 0.0
2017-Sep-10 02:00N 19°13' W 096°08'0 0.0
2017-Sep-10 01:30N 19°13' W 096°08'0 0.0
2017-Sep-10 01:00N 19°13' W 096°08'0 0.0
2017-Sep-10 00:30N 19°13' W 096°08'0 0.0
2017-Sep-10 00:00N 19°13' W 096°08'0 0.0
2017-Sep-09 23:30N 19°13' W 096°08'0 0.0
2017-Sep-09 23:00N 19°13' W 096°08'0 0.0
2017-Sep-09 22:27N 19°13' W 096°08'0 0.0
2017-Sep-09 22:00N 19°13' W 096°08'0 0.0
2017-Sep-09 21:27N 19°13' W 096°08'0 0.0
2017-Sep-09 21:00N 19°13' W 096°08'0 0.0
2017-Sep-09 20:30N 19°13' W 096°08'0 0.0
2017-Sep-09 20:00N 19°13' W 096°08'0 0.0
2017-Sep-09 19:30N 19°13' W 096°08'0 0.0
2017-Sep-09 19:00N 19°13' W 096°08'0 0.0
2017-Sep-09 18:24N 19°13' W 096°08'0 0.0
2017-Sep-09 17:57N 19°13' W 096°08'0 0.0
2017-Sep-09 17:30N 19°13' W 096°08'0 0.0
2017-Sep-09 16:57N 19°13' W 096°08'0 0.0
2017-Sep-09 16:30N 19°13' W 096°08'0 0.0
2017-Sep-09 15:57N 19°13' W 096°08'0 0.0
2017-Sep-09 15:30N 19°13' W 096°08'0 0.0
2017-Sep-09 15:00N 19°13' W 096°08'0 0.0
2017-Sep-09 14:27N 19°13' W 096°08'0 0.0
2017-Sep-09 14:00N 19°13' W 096°08'0 0.0
2017-Sep-09 13:30N 19°13' W 096°08'0 0.0
2017-Sep-09 13:00N 19°13' W 096°08'0 0.0
2017-Sep-09 12:30N 19°13' W 096°08'0 0.0
2017-Sep-09 11:57N 19°13' W 096°08'0 0.0
2017-Sep-09 11:27N 19°13' W 096°08'0 0.0
2017-Sep-09 11:00N 19°13' W 096°08'0 0.0
2017-Sep-09 10:30N 19°13' W 096°08'0 0.0
2017-Sep-09 10:00N 19°13' W 096°08'0 0.0
2017-Sep-09 09:30N 19°13' W 096°08'0 0.0
2017-Sep-09 09:00N 19°13' W 096°08'0 0.0
2017-Sep-09 08:27N 19°13' W 096°08'0 0.0
2017-Sep-09 07:57N 19°13' W 096°08'0 0.0
2017-Sep-09 07:30N 19°13' W 096°08'0 0.0
2017-Sep-09 07:00N 19°13' W 096°08'0 0.0
2017-Sep-09 06:30N 19°13' W 096°08'0 0.0
2017-Sep-09 06:00N 19°13' W 096°08'0 0.0
2017-Sep-09 05:30N 19°13' W 096°08'0 0.0
2017-Sep-09 05:00N 19°13' W 096°08'0 0.0
2017-Sep-09 04:30N 19°13' W 096°08'0 0.0
2017-Sep-09 04:00N 19°13' W 096°08'0 0.0
2017-Sep-09 03:30N 19°13' W 096°08'0 0.0
2017-Sep-09 03:00N 19°13' W 096°08'0 0.0
2017-Sep-09 02:30N 19°13' W 096°08'0 0.0
2017-Sep-09 02:00N 19°13' W 096°08'0 0.0
2017-Sep-09 01:30N 19°13' W 096°08'0 0.0
2017-Sep-09 01:00N 19°13' W 096°08'0 0.0
2017-Sep-09 00:30N 19°13' W 096°08'0 0.0
2017-Sep-09 00:00N 19°13' W 096°08'0 0.0
2017-Sep-08 23:30N 19°13' W 096°08'0 0.0
2017-Sep-08 22:57N 19°13' W 096°08'0 0.0
2017-Sep-08 22:30N 19°13' W 096°08'0 0.0
2017-Sep-08 22:00N 19°13' W 096°08'0 0.0
2017-Sep-08 21:30N 19°13' W 096°08'0 0.0
2017-Sep-08 21:00N 19°13' W 096°08'0 0.0
2017-Sep-08 20:30N 19°13' W 096°08'0 0.0
2017-Sep-08 19:57N 19°13' W 096°08'0 0.0
2017-Sep-08 19:30N 19°13' W 096°08'0 0.0
2017-Sep-08 19:00N 19°13' W 096°08'0 0.0
2017-Sep-08 18:27N 19°13' W 096°08'0 0.0
2017-Sep-08 18:00N 19°13' W 096°08'0 0.0
2017-Sep-08 17:30N 19°13' W 096°08'0 0.0
2017-Sep-08 17:00N 19°13' W 096°08'0 0.0
2017-Sep-08 16:30N 19°13' W 096°08'0 0.0
2017-Sep-08 16:00N 19°13' W 096°08'0 0.0
2017-Sep-08 15:30N 19°13' W 096°08'0 0.0
2017-Sep-08 15:00N 19°13' W 096°08'0 0.0
2017-Sep-08 14:30N 19°13' W 096°08'0 0.4
2017-Sep-08 14:00N 19°12' W 096°08'3 6.9
2017-Sep-08 13:30N 19°12' W 096°04'4 8.2
2017-Sep-08 13:00N 19°09' W 096°01'2 2.3
2017-Sep-08 12:14N 19°08' W 096°00'0 0.0
2017-Sep-08 11:50N 19°08' W 096°00'0 0.0
2017-Sep-08 11:26N 19°08' W 096°00'0 0.0
2017-Sep-08 10:56N 19°08' W 096°00'0 0.0
2017-Sep-08 10:26N 19°08' W 096°00'0 0.0
2017-Sep-08 09:56N 19°08' W 096°00'0 0.0
2017-Sep-08 09:26N 19°08' W 096°00'0 0.0
2017-Sep-08 08:56N 19°08' W 096°00'0 0.0
2017-Sep-08 08:26N 19°08' W 096°00'0 0.1
2017-Sep-08 07:56N 19°08' W 096°00'0 0.0
2017-Sep-08 07:26N 19°08' W 096°00'0 0.0
2017-Sep-08 06:56N 19°08' W 096°00'0 0.0
2017-Sep-08 06:20N 19°08' W 096°00'0 0.0
2017-Sep-08 05:56N 19°08' W 096°00'0 0.0
2017-Sep-08 05:26N 19°08' W 096°00'0 0.0
2017-Sep-08 04:56N 19°08' W 096°00'0 0.0
2017-Sep-08 04:26N 19°08' W 096°00'0 0.0
2017-Sep-08 03:56N 19°08' W 096°00'0 0.0
2017-Sep-08 03:26N 19°08' W 096°00'0 0.0
2017-Sep-08 02:56N 19°08' W 096°00'0 0.0
2017-Sep-08 02:26N 19°08' W 096°00'0 0.0
2017-Sep-08 01:56N 19°08' W 096°00'0 0.0
2017-Sep-08 01:29N 19°08' W 096°00'0 0.1
2017-Sep-08 00:59N 19°08' W 096°00'0 0.1
2017-Sep-08 00:29N 19°08' W 096°00'0 0.0
2017-Sep-07 23:59N 19°08' W 096°00'0 0.0
2017-Sep-07 23:29N 19°08' W 096°00'0 0.0
2017-Sep-07 22:53N 19°08' W 096°00'0 0.0
2017-Sep-07 22:29N 19°08' W 096°00'0 0.0
2017-Sep-07 21:59N 19°08' W 096°00'0 0.0
2017-Sep-07 21:29N 19°08' W 096°00'0 0.0
2017-Sep-07 20:53N 19°08' W 096°00'0 0.0
2017-Sep-07 20:29N 19°08' W 096°00'0 0.0
2017-Sep-07 19:59N 19°08' W 096°00'0 0.0
2017-Sep-07 19:29N 19°08' W 096°00'0 0.0
2017-Sep-07 18:53N 19°08' W 096°00'0 0.0
2017-Sep-07 18:29N 19°08' W 096°00'0 0.0
2017-Sep-07 17:58N 19°08' W 096°00'0 0.0
2017-Sep-07 17:17N 19°08' W 096°00'0 0.0
2017-Sep-07 16:58N 19°08' W 096°00'0 0.0
2017-Sep-07 16:29N 19°08' W 096°00'0 0.0
2017-Sep-07 15:59N 19°08' W 096°00'0 0.0
2017-Sep-07 15:23N 19°08' W 096°00'0 0.0
2017-Sep-07 14:59N 19°08' W 096°00'0 0.0
2017-Sep-07 14:29N 19°08' W 096°00'0 0.0
2017-Sep-07 13:59N 19°08' W 096°00'0 0.0
2017-Sep-07 13:29N 19°08' W 096°00'0 0.0
2017-Sep-07 12:59N 19°08' W 096°00'0 0.0
2017-Sep-07 12:29N 19°08' W 096°00'0 0.0
2017-Sep-07 11:59N 19°08' W 096°00'0 0.0
2017-Sep-07 11:29N 19°08' W 096°00'0 0.0
2017-Sep-07 10:59N 19°08' W 096°00'0 0.0
2017-Sep-07 10:28N 19°08' W 096°00'0 0.0
2017-Sep-07 09:59N 19°08' W 096°00'0 0.0
2017-Sep-07 09:29N 19°08' W 096°00'0 0.0
2017-Sep-07 08:58N 19°08' W 096°00'0 0.0
2017-Sep-07 08:28N 19°08' W 096°00'0 0.0
2017-Sep-07 07:58N 19°08' W 096°00'0 0.0
2017-Sep-07 07:29N 19°08' W 096°00'0 0.0
2017-Sep-07 06:53N 19°08' W 096°00'0 0.0
2017-Sep-07 06:22N 19°08' W 096°00'0 0.0
2017-Sep-07 05:59N 19°08' W 096°00'0 0.0
2017-Sep-07 05:28N 19°08' W 096°00'0 0.0
2017-Sep-07 04:59N 19°08' W 096°00'0 0.0
2017-Sep-07 04:28N 19°08' W 096°00'  
Track history (hours):
 
Tides and Currents Weather Stations Pressure Air Temp Water Temp Dewpoint Dewpoint Depression Visibility Wind Speed Wind Dir Waves Ship Positions

Ubc Sacramento

Last reported at 2017-Sep-17 04:14 UTC. Time now 2017-Sep-22 20:43 UTC.
Position N 29°15' W 094°38'.

Length 172 m; draft 6.1 m.

Type: Cargo ship. MMSI: 209393000.

Date/timePositionNaut miles runAvg speedWind from/ knotsBaromVisibWave heightAir tempDewpointWater temp
2017-Sep-17 04:14N 29°15' W 094°38'0 0.0
2017-Sep-17 03:11N 29°15' W 094°38'0 0.0
2017-Sep-17 02:56N 29°15' W 094°38'0 0.0
2017-Sep-17 02:23N 29°15' W 094°38'0 0.0
2017-Sep-17 01:59N 29°15' W 094°38'15 3.5
2017-Sep-16 21:39N 29°26' W 094°50'212.6
2017-Sep-16 21:30N 29°28' W 094°51'613.2
2017-Sep-16 21:00N 29°33' W 094°55'612.7
2017-Sep-16 20:30N 29°39' W 094°58'3 4.7
2017-Sep-16 19:58N 29°41' W 094°59'0 0.0
2017-Sep-16 19:28N 29°41' W 094°59'0 0.0
2017-Sep-16 18:58N 29°41' W 094°59'0 0.0
2017-Sep-16 18:28N 29°41' W 094°59'0 0.0
2017-Sep-16 17:58N 29°41' W 094°59'0 0.0
2017-Sep-16 17:28N 29°41' W 094°59'0 0.0
2017-Sep-16 16:58N 29°41' W 094°59'0 0.0
2017-Sep-16 16:28N 29°41' W 094°59'0 0.0
2017-Sep-16 15:58N 29°41' W 094°59'0 0.0
2017-Sep-16 15:28N 29°41' W 094°59'0 0.0
2017-Sep-16 14:52N 29°41' W 094°59'0 0.0
2017-Sep-16 14:28N 29°41' W 094°59'0 0.0
2017-Sep-16 13:58N 29°41' W 094°59'0 0.0
2017-Sep-16 13:28N 29°41' W 094°59'0 0.0
2017-Sep-16 12:58N 29°41' W 094°59'0 0.0
2017-Sep-16 12:28N 29°41' W 094°59'0 0.0
2017-Sep-16 11:58N 29°41' W 094°59'0 0.0
2017-Sep-16 11:28N 29°41' W 094°59'0 0.0
2017-Sep-16 10:58N 29°41' W 094°59'0 0.0
2017-Sep-16 10:28N 29°41' W 094°59'0 0.0
2017-Sep-16 09:58N 29°41' W 094°59'0 0.0
2017-Sep-16 09:28N 29°41' W 094°59'0 0.0
2017-Sep-16 08:55N 29°41' W 094°59'0 0.0
2017-Sep-16 08:28N 29°41' W 094°59'0 0.0
2017-Sep-16 07:58N 29°41' W 094°59'0 0.0
2017-Sep-16 07:28N 29°41' W 094°59'0 0.0
2017-Sep-16 06:58N 29°41' W 094°59'0 0.0
2017-Sep-16 06:25N 29°41' W 094°59'0 0.0
2017-Sep-16 05:58N 29°41' W 094°59'0 0.0
2017-Sep-16 05:28N 29°41' W 094°59'0 0.0
2017-Sep-16 04:58N 29°41' W 094°59'0 0.0
2017-Sep-16 04:28N 29°41' W 094°59'0 0.0
2017-Sep-16 03:55N 29°41' W 094°59'0 0.0
2017-Sep-16 03:28N 29°41' W 094°59'0 0.0
2017-Sep-16 02:58N 29°41' W 094°59'0 0.0
2017-Sep-16 02:28N 29°41' W 094°59'0 0.0
2017-Sep-16 01:58N 29°41' W 094°59'0 0.0
2017-Sep-16 01:28N 29°41' W 094°59'0 0.0
2017-Sep-16 00:58N 29°41' W 094°59'0 0.0
2017-Sep-16 00:28N 29°41' W 094°59'0 0.0
2017-Sep-15 23:58N 29°41' W 094°59'0 0.0
2017-Sep-15 23:25N 29°41' W 094°59'0 0.0
2017-Sep-15 23:00N 29°41' W 094°59'0 0.0
2017-Sep-15 22:30N 29°41' W 094°59'0 0.0
2017-Sep-15 22:00N 29°41' W 094°59'0 0.0
2017-Sep-15 21:30N 29°41' W 094°59'0 0.0
2017-Sep-15 21:00N 29°41' W 094°59'0 0.0
2017-Sep-15 20:30N 29°41' W 094°59'0 0.0
2017-Sep-15 20:00N 29°41' W 094°59'0 0.7
2017-Sep-15 19:30N 29°41' W 094°59'510.7
2017-Sep-15 19:00N 29°36' W 094°57'713.1
2017-Sep-15 18:30N 29°30' W 094°53'612.8
2017-Sep-15 18:00N 29°25' W 094°49'59512.4
2017-Sep-13 17:57N 19°32' W 095°55'613.5
2017-Sep-13 17:30N 19°26' W 095°56'713.3
2017-Sep-13 17:01N 19°20' W 095°57'612.2
2017-Sep-13 16:30N 19°14' W 095°59'510.6
2017-Sep-13 16:00N 19°12' W 096°04'4 7.5
2017-Sep-13 15:30N 19°13' W 096°08'0 0.1
2017-Sep-13 15:00N 19°13' W 096°08'0 0.0
2017-Sep-13 14:30N 19°13' W 096°08'0 0.0
2017-Sep-13 14:00N 19°13' W 096°08'0 0.0
2017-Sep-13 13:27N 19°13' W 096°08'0 0.0
2017-Sep-13 13:00N 19°13' W 096°08'0 0.0
2017-Sep-13 12:27N 19°13' W 096°08'0 0.0
2017-Sep-13 12:00N 19°13' W 096°08'0 0.0
2017-Sep-13 11:27N 19°13' W 096°08'0 0.0
2017-Sep-13 11:00N 19°13' W 096°08'0 0.0
2017-Sep-13 10:30N 19°13' W 096°08'0 0.0
2017-Sep-13 09:57N 19°13' W 096°08'0 0.0
2017-Sep-13 09:30N 19°13' W 096°08'0 0.0
2017-Sep-13 09:00N 19°13' W 096°08'0 0.0
2017-Sep-13 08:27N 19°13' W 096°08'0 0.0
2017-Sep-13 07:57N 19°13' W 096°08'0 0.0
2017-Sep-13 07:30N 19°13' W 096°08'0 0.0
2017-Sep-13 07:00N 19°13' W 096°08'0 0.0
2017-Sep-13 06:30N 19°13' W 096°08'0 0.0
2017-Sep-13 06:00N 19°13' W 096°08'0 0.0
2017-Sep-13 05:30N 19°13' W 096°08'0 0.0
2017-Sep-13 05:00N 19°13' W 096°08'0 0.0
2017-Sep-13 04:30N 19°13' W 096°08'0 0.0
2017-Sep-13 04:00N 19°13' W 096°08'0 0.0
2017-Sep-13 03:30N 19°13' W 096°08'0 0.0
2017-Sep-13 03:00N 19°13' W 096°08'0 0.0
2017-Sep-13 02:30N 19°13' W 096°08'0 0.0
2017-Sep-13 02:00N 19°13' W 096°08'0 0.0
2017-Sep-13 01:30N 19°13' W 096°08'0 0.0
2017-Sep-13 01:00N 19°13' W 096°08'0 0.0
2017-Sep-13 00:30N 19°13' W 096°08'0 0.0
2017-Sep-13 00:00N 19°13' W 096°08'0 0.0
2017-Sep-12 23:30N 19°13' W 096°08'0 0.0
2017-Sep-12 23:00N 19°13' W 096°08'0 0.0
2017-Sep-12 22:30N 19°13' W 096°08'0 0.0
2017-Sep-12 22:00N 19°13' W 096°08'0 0.0
2017-Sep-12 21:30N 19°13' W 096°08'0 0.0
2017-Sep-12 21:00N 19°13' W 096°08'0 0.0
2017-Sep-12 20:30N 19°13' W 096°08'0 0.0
2017-Sep-12 20:00N 19°13' W 096°08'0 0.0
2017-Sep-12 19:30N 19°13' W 096°08'0 0.0
2017-Sep-12 19:00N 19°13' W 096°08'0 0.0
2017-Sep-12 18:30N 19°13' W 096°08'0 0.0
2017-Sep-12 18:00N 19°13' W 096°08'0 0.0
2017-Sep-12 17:30N 19°13' W 096°08'0 0.0
2017-Sep-12 17:00N 19°13' W 096°08'0 0.0
2017-Sep-12 16:30N 19°13' W 096°08'0 0.0
2017-Sep-12 16:00N 19°13' W 096°08'0 0.0
2017-Sep-12 15:30N 19°13' W 096°08'0 0.0
2017-Sep-12 15:00N 19°13' W 096°08'0 0.0
2017-Sep-12 14:30N 19°13' W 096°08'0 0.0
2017-Sep-12 14:00N 19°13' W 096°08'0 0.0
2017-Sep-12 13:27N 19°13' W 096°08'0 0.0
2017-Sep-12 12:57N 19°13' W 096°08'0 0.0
2017-Sep-12 12:30N 19°13' W 096°08'0 0.0
2017-Sep-12 12:00N 19°13' W 096°08'0 0.0
2017-Sep-12 11:30N 19°13' W 096°08'0 0.0
2017-Sep-12 11:00N 19°13' W 096°08'0 0.0
2017-Sep-12 10:30N 19°13' W 096°08'0 0.0
2017-Sep-12 10:00N 19°13' W 096°08'0 0.0
2017-Sep-12 09:30N 19°13' W 096°08'0 0.0
2017-Sep-12 08:57N 19°13' W 096°08'0 0.0
2017-Sep-12 08:30N 19°13' W 096°08'0 0.0
2017-Sep-12 08:00N 19°13' W 096°08'0 0.0
2017-Sep-12 07:30N 19°13' W 096°08'0 0.0
2017-Sep-12 07:00N 19°13' W 096°08'0 0.0
2017-Sep-12 06:27N 19°13' W 096°08'0 0.0
2017-Sep-12 06:00N 19°13' W 096°08'0 0.0
2017-Sep-12 05:30N 19°13' W 096°08'0 0.0
2017-Sep-12 05:00N 19°13' W 096°08'0 0.0
2017-Sep-12 04:30N 19°13' W 096°08'0 0.0
2017-Sep-12 04:00N 19°13' W 096°08'0 0.0
2017-Sep-12 03:30N 19°13' W 096°08'0 0.0
2017-Sep-12 03:00N 19°13' W 096°08'0 0.0
2017-Sep-12 02:30N 19°13' W 096°08'0 0.0
2017-Sep-12 02:00N 19°13' W 096°08'0 0.0
2017-Sep-12 01:27N 19°13' W 096°08'0 0.0
2017-Sep-12 01:00N 19°13' W 096°08'0 0.0
2017-Sep-12 00:30N 19°13' W 096°08'0 0.0
2017-Sep-12 00:00N 19°13' W 096°08'0 0.0
2017-Sep-11 23:30N 19°13' W 096°08'0 0.0
2017-Sep-11 23:00N 19°13' W 096°08'0 0.0
2017-Sep-11 22:30N 19°13' W 096°08'0 0.0
2017-Sep-11 22:00N 19°13' W 096°08'0 0.0
2017-Sep-11 21:30N 19°13' W 096°08'0 0.0
2017-Sep-11 20:57N 19°13' W 096°08'0 0.0
2017-Sep-11 20:30N 19°13' W 096°08'0 0.0
2017-Sep-11 20:00N 19°13' W 096°08'0 0.0
2017-Sep-11 19:30N 19°13' W 096°08'0 0.0
2017-Sep-11 18:57N 19°13' W 096°08'0 0.0
2017-Sep-11 18:30N 19°13' W 096°08'0 0.0
2017-Sep-11 18:00N 19°13' W 096°08'0 0.0
2017-Sep-11 17:30N 19°13' W 096°08'0 0.0
2017-Sep-11 16:54N 19°13' W 096°08'0 0.0
2017-Sep-11 16:30N 19°13' W 096°08'0 0.0
2017-Sep-11 16:00N 19°13' W 096°08'0 0.0
2017-Sep-11 15:30N 19°13' W 096°08'0 0.0
2017-Sep-11 15:00N 19°13' W 096°08'0 0.0
2017-Sep-11 14:30N 19°13' W 096°08'0 0.0
2017-Sep-11 14:00N 19°13' W 096°08'0 0.0
2017-Sep-11 13:24N 19°13' W 096°08'0 0.0
2017-Sep-11 13:00N 19°13' W 096°08'0 0.0
2017-Sep-11 12:30N 19°13' W 096°08'0 0.0
2017-Sep-11 12:00N 19°13' W 096°08'0 0.0
2017-Sep-11 11:30N 19°13' W 096°08'0 0.0
2017-Sep-11 11:00N 19°13' W 096°08'0 0.0
2017-Sep-11 10:30N 19°13' W 096°08'0 0.0
2017-Sep-11 10:00N 19°13' W 096°08'0 0.0
2017-Sep-11 09:30N 19°13' W 096°08'0 0.0
2017-Sep-11 09:00N 19°13' W 096°08'0 0.0
2017-Sep-11 08:30N 19°13' W 096°08'0 0.0
2017-Sep-11 08:00N 19°13' W 096°08'0 0.0
2017-Sep-11 07:30N 19°13' W 096°08'0 0.0
2017-Sep-11 07:00N 19°13' W 096°08'0 0.0
2017-Sep-11 06:30N 19°13' W 096°08'0 0.0
2017-Sep-11 05:54N 19°13' W 096°08'0 0.0
2017-Sep-11 05:30N 19°13' W 096°08'0 0.0
2017-Sep-11 05:00N 19°13' W 096°08'0 0.0
2017-Sep-11 04:30N 19°13' W 096°08'0 0.0
2017-Sep-11 03:54N 19°13' W 096°08'0 0.0
2017-Sep-11 03:30N 19°13' W 096°08'0 0.0
2017-Sep-11 03:00N 19°13' W 096°08'0 0.0
2017-Sep-11 02:30N 19°13' W 096°08'0 0.0
2017-Sep-11 02:00N 19°13' W 096°08'0 0.0
2017-Sep-11 01:30N 19°13' W 096°08'0 0.0
2017-Sep-11 01:00N 19°13' W 096°08'0 0.0
2017-Sep-11 00:30N 19°13' W 096°08'0 0.0
2017-Sep-11 00:00N 19°13' W 096°08'0 0.0
2017-Sep-10 23:30N 19°13' W 096°08'0 0.0
2017-Sep-10 23:00N 19°13' W 096°08'0 0.0
2017-Sep-10 22:30N 19°13' W 096°08'0 0.0
2017-Sep-10 22:00N 19°13' W 096°08'0 0.0
2017-Sep-10 21:30N 19°13' W 096°08'0 0.0
2017-Sep-10 21:00N 19°13' W 096°08'0 0.0
2017-Sep-10 20:30N 19°13' W 096°08'0 0.0
2017-Sep-10 20:00N 19°13' W 096°08'0 0.0
2017-Sep-10 19:24N 19°13' W 096°08'0 0.0
2017-Sep-10 18:54N 19°13' W 096°08'0 0.0
2017-Sep-10 18:30N 19°13' W 096°08'0 0.0
2017-Sep-10 17:57N 19°13' W 096°08'0 0.0
2017-Sep-10 17:30N 19°13' W 096°08'0 0.0
2017-Sep-10 17:00N 19°13' W 096°08'0 0.0
2017-Sep-10 16:30N 19°13' W 096°08'0 0.0
2017-Sep-10 16:00N 19°13' W 096°08'0 0.0
2017-Sep-10 15:30N 19°13' W 096°08'0 0.0
2017-Sep-10 15:00N 19°13' W 096°08'0 0.0
2017-Sep-10 14:00N 19°13' W 096°08'0 0.0
2017-Sep-10 13:30N 19°13' W 096°08'0 0.0
2017-Sep-10 13:00N 19°13' W 096°08'0 0.0
2017-Sep-10 12:30N 19°13' W 096°08'0 0.0
2017-Sep-10 11:57N 19°13' W 096°08'0 0.0
2017-Sep-10 11:27N 19°13' W 096°08'0 0.0
2017-Sep-10 11:00N 19°13' W 096°08'0 0.0
2017-Sep-10 10:30N 19°13' W 096°08'0 0.0
2017-Sep-10 10:00N 19°13' W 096°08'0 0.0
2017-Sep-10 09:30N 19°13' W 096°08'0 0.0
2017-Sep-10 09:00N 19°13' W 096°08'0 0.0
2017-Sep-10 08:30N 19°13' W 096°08'0 0.0
2017-Sep-10 08:00N 19°13' W 096°08'0 0.0
2017-Sep-10 07:30N 19°13' W 096°08'0 0.0
2017-Sep-10 07:00N 19°13' W 096°08'0 0.0
2017-Sep-10 06:30N 19°13' W 096°08'0 0.0
2017-Sep-10 06:00N 19°13' W 096°08'0 0.0
2017-Sep-10 05:30N 19°13' W 096°08'0 0.0
2017-Sep-10 05:00N 19°13' W 096°08'0 0.0
2017-Sep-10 04:30N 19°13' W 096°08'0 0.0
2017-Sep-10 04:00N 19°13' W 096°08'0 0.0
2017-Sep-10 03:30N 19°13' W 096°08'0 0.0
2017-Sep-10 02:51N 19°13' W 096°08'0 0.0
2017-Sep-10 02:30N 19°13' W 096°08'0 0.0
2017-Sep-10 02:00N 19°13' W 096°08'0 0.0
2017-Sep-10 01:30N 19°13' W 096°08'0 0.0
2017-Sep-10 01:00N 19°13' W 096°08'0 0.0
2017-Sep-10 00:30N 19°13' W 096°08'0 0.0
2017-Sep-10 00:00N 19°13' W 096°08'0 0.0
2017-Sep-09 23:30N 19°13' W 096°08'0 0.0
2017-Sep-09 23:00N 19°13' W 096°08'0 0.0
2017-Sep-09 22:27N 19°13' W 096°08'0 0.0
2017-Sep-09 22:00N 19°13' W 096°08'0 0.0
2017-Sep-09 21:27N 19°13' W 096°08'0 0.0
2017-Sep-09 21:00N 19°13' W 096°08'0 0.0
2017-Sep-09 20:30N 19°13' W 096°08'0 0.0
2017-Sep-09 20:00N 19°13' W 096°08'0 0.0
2017-Sep-09 19:30N 19°13' W 096°08'0 0.0
2017-Sep-09 19:00N 19°13' W 096°08'0 0.0
2017-Sep-09 18:24N 19°13' W 096°08'0 0.0
2017-Sep-09 17:57N 19°13' W 096°08'0 0.0
2017-Sep-09 17:30N 19°13' W 096°08'0 0.0
2017-Sep-09 16:57N 19°13' W 096°08'0 0.0
2017-Sep-09 16:30N 19°13' W 096°08'0 0.0
2017-Sep-09 15:57N 19°13' W 096°08'0 0.0
2017-Sep-09 15:30N 19°13' W 096°08'0 0.0
2017-Sep-09 15:00N 19°13' W 096°08'0 0.0
2017-Sep-09 14:27N 19°13' W 096°08'0 0.0
2017-Sep-09 14:00N 19°13' W 096°08'0 0.0
2017-Sep-09 13:30N 19°13' W 096°08'0 0.0
2017-Sep-09 13:00N 19°13' W 096°08'0 0.0
2017-Sep-09 12:30N 19°13' W 096°08'0 0.0
2017-Sep-09 11:57N 19°13' W 096°08'0 0.0
2017-Sep-09 11:27N 19°13' W 096°08'0 0.0
2017-Sep-09 11:00N 19°13' W 096°08'0 0.0
2017-Sep-09 10:30N 19°13' W 096°08'0 0.0
2017-Sep-09 10:00N 19°13' W 096°08'0 0.0
2017-Sep-09 09:30N 19°13' W 096°08'0 0.0
2017-Sep-09 09:00N 19°13' W 096°08'0 0.0
2017-Sep-09 08:27N 19°13' W 096°08'0 0.0
2017-Sep-09 07:57N 19°13' W 096°08'0 0.0
2017-Sep-09 07:30N 19°13' W 096°08'0 0.0
2017-Sep-09 07:00N 19°13' W 096°08'0 0.0
2017-Sep-09 06:30N 19°13' W 096°08'0 0.0
2017-Sep-09 06:00N 19°13' W 096°08'0 0.0
2017-Sep-09 05:30N 19°13' W 096°08'0 0.0
2017-Sep-09 05:00N 19°13' W 096°08'0 0.0
2017-Sep-09 04:30N 19°13' W 096°08'0 0.0
2017-Sep-09 04:00N 19°13' W 096°08'0 0.0
2017-Sep-09 03:30N 19°13' W 096°08'0 0.0
2017-Sep-09 03:00N 19°13' W 096°08'0 0.0
2017-Sep-09 02:30N 19°13' W 096°08'0 0.0
2017-Sep-09 02:00N 19°13' W 096°08'0 0.0
2017-Sep-09 01:30N 19°13' W 096°08'0 0.0
2017-Sep-09 01:00N 19°13' W 096°08'0 0.0
2017-Sep-09 00:30N 19°13' W 096°08'0 0.0
2017-Sep-09 00:00N 19°13' W 096°08'0 0.0
2017-Sep-08 23:30N 19°13' W 096°08'0 0.0
2017-Sep-08 22:57N 19°13' W 096°08'0 0.0
2017-Sep-08 22:30N 19°13' W 096°08'0 0.0
2017-Sep-08 22:00N 19°13' W 096°08'0 0.0
2017-Sep-08 21:30N 19°13' W 096°08'0 0.0
2017-Sep-08 21:00N 19°13' W 096°08'0 0.0
2017-Sep-08 20:30N 19°13' W 096°08'0 0.0
2017-Sep-08 19:57N 19°13' W 096°08'0 0.0
2017-Sep-08 19:30N 19°13' W 096°08'0 0.0
2017-Sep-08 19:00N 19°13' W 096°08'0 0.0
2017-Sep-08 18:27N 19°13' W 096°08'0 0.0
2017-Sep-08 18:00N 19°13' W 096°08'0 0.0
2017-Sep-08 17:30N 19°13' W 096°08'0 0.0
2017-Sep-08 17:00N 19°13' W 096°08'0 0.0
2017-Sep-08 16:30N 19°13' W 096°08'0 0.0
2017-Sep-08 16:00N 19°13' W 096°08'0 0.0
2017-Sep-08 15:30N 19°13' W 096°08'0 0.0
2017-Sep-08 15:00N 19°13' W 096°08'0 0.0
2017-Sep-08 14:30N 19°13' W 096°08'0 0.4
2017-Sep-08 14:00N 19°12' W 096°08'3 6.9
2017-Sep-08 13:30N 19°12' W 096°04'4 8.2
2017-Sep-08 13:00N 19°09' W 096°01'2 2.3
2017-Sep-08 12:14N 19°08' W 096°00'0 0.0
2017-Sep-08 11:50N 19°08' W 096°00'0 0.0
2017-Sep-08 11:26N 19°08' W 096°00'0 0.0
2017-Sep-08 10:56N 19°08' W 096°00'0 0.0
2017-Sep-08 10:26N 19°08' W 096°00'0 0.0
2017-Sep-08 09:56N 19°08' W 096°00'0 0.0
2017-Sep-08 09:26N 19°08' W 096°00'0 0.0
2017-Sep-08 08:56N 19°08' W 096°00'0 0.0
2017-Sep-08 08:26N 19°08' W 096°00'0 0.1
2017-Sep-08 07:56N 19°08' W 096°00'0 0.0
2017-Sep-08 07:26N 19°08' W 096°00'0 0.0
2017-Sep-08 06:56N 19°08' W 096°00'0 0.0
2017-Sep-08 06:20N 19°08' W 096°00'0 0.0
2017-Sep-08 05:56N 19°08' W 096°00'0 0.0
2017-Sep-08 05:26N 19°08' W 096°00'0 0.0
2017-Sep-08 04:56N 19°08' W 096°00'0 0.0
2017-Sep-08 04:26N 19°08' W 096°00'0 0.0
2017-Sep-08 03:56N 19°08' W 096°00'0 0.0
2017-Sep-08 03:26N 19°08' W 096°00'0 0.0
2017-Sep-08 02:56N 19°08' W 096°00'0 0.0
2017-Sep-08 02:26N 19°08' W 096°00'0 0.0
2017-Sep-08 01:56N 19°08' W 096°00'0 0.0
2017-Sep-08 01:29N 19°08' W 096°00'0 0.1
2017-Sep-08 00:59N 19°08' W 096°00'0 0.1
2017-Sep-08 00:29N 19°08' W 096°00'0 0.0
2017-Sep-07 23:59N 19°08' W 096°00'0 0.0
2017-Sep-07 23:29N 19°08' W 096°00'0 0.0
2017-Sep-07 22:53N 19°08' W 096°00'0 0.0
2017-Sep-07 22:29N 19°08' W 096°00'0 0.0
2017-Sep-07 21:59N 19°08' W 096°00'0 0.0
2017-Sep-07 21:29N 19°08' W 096°00'0 0.0
2017-Sep-07 20:53N 19°08' W 096°00'0 0.0
2017-Sep-07 20:29N 19°08' W 096°00'0 0.0
2017-Sep-07 19:59N 19°08' W 096°00'0 0.0
2017-Sep-07 19:29N 19°08' W 096°00'0 0.0
2017-Sep-07 18:53N 19°08' W 096°00'0 0.0
2017-Sep-07 18:29N 19°08' W 096°00'0 0.0
2017-Sep-07 17:58N 19°08' W 096°00'0 0.0
2017-Sep-07 17:17N 19°08' W 096°00'0 0.0
2017-Sep-07 16:58N 19°08' W 096°00'0 0.0
2017-Sep-07 16:29N 19°08' W 096°00'0 0.0
2017-Sep-07 15:59N 19°08' W 096°00'0 0.0
2017-Sep-07 15:23N 19°08' W 096°00'0 0.0
2017-Sep-07 14:59N 19°08' W 096°00'0 0.0
2017-Sep-07 14:29N 19°08' W 096°00'0 0.0
2017-Sep-07 13:59N 19°08' W 096°00'0 0.0
2017-Sep-07 13:29N 19°08' W 096°00'0 0.0
2017-Sep-07 12:59N 19°08' W 096°00'0 0.0
2017-Sep-07 12:29N 19°08' W 096°00'0 0.0
2017-Sep-07 11:59N 19°08' W 096°00'0 0.0
2017-Sep-07 11:29N 19°08' W 096°00'0 0.0
2017-Sep-07 10:59N 19°08' W 096°00'0 0.0
2017-Sep-07 10:28N 19°08' W 096°00'0 0.0
2017-Sep-07 09:59N 19°08' W 096°00'0 0.0
2017-Sep-07 09:29N 19°08' W 096°00'0 0.0
2017-Sep-07 08:58N 19°08' W 096°00'0 0.0
2017-Sep-07 08:28N 19°08' W 096°00'0 0.0
2017-Sep-07 07:58N 19°08' W 096°00'0 0.0
2017-Sep-07 07:29N 19°08' W 096°00'0 0.0
2017-Sep-07 06:53N 19°08' W 096°00'0 0.0
2017-Sep-07 06:22N 19°08' W 096°00'0 0.0
2017-Sep-07 05:59N 19°08' W 096°00'0 0.0
2017-Sep-07 05:28N 19°08' W 096°00'0 0.0
2017-Sep-07 04:59N 19°08' W 096°00'0 0.0
2017-Sep-07 04:28N 19°08' W 096°00'  

Dump ship's entire track history